createdAt,value
2022-09-25T00:01:21.363Z,28.47
2022-09-25T00:03:49.846Z,27.87
2022-09-25T00:06:19.837Z,27.70
2022-09-25T00:08:49.710Z,28.53
2022-09-25T00:11:19.449Z,28.50
2022-09-25T00:13:48.840Z,27.03
2022-09-25T00:16:19.031Z,27.50
2022-09-25T00:19:05.159Z,27.63
2022-09-25T00:21:34.137Z,29.03
2022-09-25T00:24:05.946Z,29.60
2022-09-25T00:26:36.580Z,29.07
2022-09-25T00:29:05.369Z,27.17
2022-09-25T00:31:34.448Z,27.93
2022-09-25T00:34:03.869Z,29.73
2022-09-25T00:36:32.882Z,29.73
2022-09-25T00:39:01.659Z,30.53
2022-09-25T00:41:33.068Z,31.17
2022-09-25T00:44:02.744Z,31.03
2022-09-25T00:46:33.831Z,29.93
2022-09-25T00:49:05.169Z,30.27
2022-09-25T00:51:41.420Z,28.77
2022-09-25T00:54:16.068Z,31.47
2022-09-25T00:56:49.087Z,30.53
2022-09-25T00:59:20.038Z,29.63
2022-09-25T01:01:48.623Z,31.70
2022-09-25T01:04:17.186Z,29.27
2022-09-25T01:06:45.730Z,32.13
2022-09-25T01:09:14.058Z,31.97
2022-09-25T01:11:42.407Z,32.23
2022-09-25T01:14:12.384Z,31.40
2022-09-25T01:16:47.633Z,33.07
2022-09-25T01:19:24.017Z,33.03
2022-09-25T01:21:54.827Z,34.57
2022-09-25T01:24:46.449Z,32.73
2022-09-25T01:27:40.859Z,35.40
2022-09-25T01:30:13.339Z,31.97
2022-09-25T01:32:49.606Z,31.03
2022-09-25T01:35:22.436Z,33.57
2022-09-25T01:37:55.322Z,30.70
2022-09-25T01:40:28.219Z,32.73
2022-09-25T01:42:59.329Z,32.87
2022-09-25T01:45:33.390Z,30.47
2022-09-25T01:48:02.249Z,33.67
2022-09-25T01:50:34.098Z,33.83
2022-09-25T01:53:04.698Z,33.07
2022-09-25T01:58:40.527Z,33.93
2022-09-25T02:01:13.751Z,34.73
2022-09-25T02:03:47.664Z,33.93
2022-09-25T02:06:20.367Z,35.47
2022-09-25T02:08:54.110Z,34.40
2022-09-25T02:11:22.836Z,35.57
2022-09-25T02:13:52.988Z,36.50
2022-09-25T02:16:24.882Z,35.80
2022-09-25T02:19:10.787Z,34.80
2022-09-25T02:21:45.426Z,34.87
2022-09-25T02:24:21.458Z,34.30
2022-09-25T02:26:50.369Z,35.47
2022-09-25T02:29:19.903Z,35.80
2022-09-25T02:31:53.895Z,37.03
2022-09-25T02:34:22.911Z,36.40
2022-09-25T02:36:51.342Z,37.57
2022-09-25T02:39:21.707Z,39.07
2022-09-25T02:42:01.350Z,37.47
2022-09-25T02:44:35.105Z,37.57
2022-09-25T02:47:15.055Z,36.17
2022-09-25T02:49:52.319Z,37.30
2022-09-25T02:52:26.316Z,38.20
2022-09-25T02:54:57.807Z,39.13
2022-09-25T02:57:30.909Z,38.83
2022-09-25T03:00:03.330Z,36.40
2022-09-25T03:02:34.756Z,38.80
2022-09-25T03:05:04.336Z,38.10
2022-09-25T03:07:53.764Z,36.73
2022-09-25T03:10:21.395Z,39.20
2022-09-25T03:12:49.777Z,38.07
2022-09-25T03:15:18.647Z,37.43
2022-09-25T03:17:51.288Z,38.93
2022-09-25T03:20:19.915Z,35.83
2022-09-25T03:22:48.316Z,36.70
2022-09-25T03:25:17.078Z,35.73
2022-09-25T03:27:45.457Z,35.40
2022-09-25T03:30:14.697Z,35.53
2022-09-25T03:32:43.075Z,36.97
2022-09-25T03:35:13.069Z,36.77
2022-09-25T03:37:41.418Z,35.03
2022-09-25T03:40:10.915Z,36.23
2022-09-25T03:42:39.306Z,35.50
2022-09-25T03:45:10.239Z,36.53
2022-09-25T03:47:38.856Z,37.17
2022-09-25T03:50:08.876Z,34.20
2022-09-25T03:52:39.047Z,34.23
2022-09-25T03:55:08.257Z,35.00
2022-09-25T03:57:36.575Z,35.80
2022-09-25T04:00:05.446Z,35.17
2022-09-25T04:02:33.913Z,33.33
2022-09-25T04:05:04.066Z,34.67
2022-09-25T04:07:32.675Z,32.97
2022-09-25T04:10:02.595Z,33.33
2022-09-25T04:12:31.498Z,33.50
2022-09-25T04:14:59.896Z,34.27
2022-09-25T04:17:29.105Z,33.33
2022-09-25T04:19:57.504Z,33.03
2022-09-25T04:22:26.056Z,33.20
2022-09-25T04:24:55.170Z,40.40
2022-09-25T04:27:27.114Z,35.03
2022-09-25T04:29:55.750Z,34.27
2022-09-25T04:32:41.377Z,32.57
2022-09-25T04:35:10.029Z,33.30
2022-09-25T04:37:38.397Z,32.23
2022-09-25T04:40:08.057Z,32.23
2022-09-25T04:42:37.869Z,31.13
2022-09-25T04:45:07.069Z,30.53
2022-09-25T04:47:35.430Z,33.07
2022-09-25T04:50:03.784Z,29.77
2022-09-25T04:52:32.710Z,32.53
2022-09-25T04:55:01.388Z,30.20
2022-09-25T04:57:56.780Z,29.17
2022-09-25T05:00:19.931Z,28.90
2022-09-25T05:02:48.391Z,28.90
2022-09-25T05:05:17.241Z,30.00
2022-09-25T05:07:53.089Z,29.70
2022-09-25T05:10:22.326Z,27.80
2022-09-25T05:12:51.090Z,28.07
2022-09-25T05:15:20.936Z,26.67
2022-09-25T05:17:49.273Z,28.10
2022-09-25T05:20:17.668Z,28.87
2022-09-25T05:22:46.012Z,27.67
2022-09-25T05:25:14.396Z,30.47
2022-09-25T05:27:44.746Z,30.77
2022-09-25T05:30:14.106Z,29.77
2022-09-25T05:32:49.687Z,29.83
2022-09-25T05:35:19.409Z,29.70
2022-09-25T05:37:47.938Z,29.13
2022-09-25T05:40:17.342Z,28.47
2022-09-25T05:42:47.013Z,28.50
2022-09-25T05:45:15.994Z,29.50
2022-09-25T05:47:45.895Z,28.73
2022-09-25T05:50:16.099Z,27.57
2022-09-25T05:52:44.561Z,27.53
2022-09-25T05:55:12.963Z,28.17
2022-09-25T05:57:41.323Z,27.23
2022-09-25T06:00:11.685Z,29.70
2022-09-25T06:02:40.138Z,29.90
2022-09-25T06:05:10.943Z,29.97
2022-09-25T06:07:39.343Z,28.37
2022-09-25T06:10:09.065Z,28.77
2022-09-25T06:12:37.546Z,28.40
2022-09-25T06:15:06.882Z,28.20
2022-09-25T06:17:35.210Z,27.90
2022-09-25T06:20:03.681Z,26.17
2022-09-25T06:22:33.473Z,27.17
2022-09-25T06:25:02.016Z,26.53
2022-09-25T06:27:31.565Z,25.87
2022-09-25T06:30:00.004Z,26.07
2022-09-25T06:32:28.465Z,25.03
2022-09-25T06:34:56.837Z,27.67
2022-09-25T06:37:25.857Z,26.93
2022-09-25T06:39:55.705Z,26.97
2022-09-25T06:42:24.183Z,30.53
2022-09-25T06:44:52.529Z,27.17
2022-09-25T06:47:26.066Z,25.83
2022-09-25T06:49:55.227Z,27.37
2022-09-25T06:52:23.677Z,25.73
2022-09-25T06:54:52.055Z,25.70
2022-09-25T06:57:22.278Z,25.27
2022-09-25T06:59:50.643Z,23.63
2022-09-25T07:02:36.516Z,22.07
2022-09-25T07:05:05.326Z,22.55
2022-09-25T07:07:33.775Z,22.43
2022-09-25T07:10:02.223Z,21.83
2022-09-25T07:12:34.439Z,19.63
2022-09-25T07:15:02.809Z,20.43
2022-09-25T07:17:31.253Z,19.87
2022-09-25T07:19:59.648Z,20.27
2022-09-25T07:22:28.148Z,19.63
2022-09-25T07:24:56.589Z,19.50
2022-09-25T07:27:25.307Z,19.33
2022-09-25T07:29:55.494Z,19.53
2022-09-25T07:32:24.104Z,19.53
2022-09-25T07:34:52.608Z,19.67
2022-09-25T07:37:21.216Z,17.47
2022-09-25T07:39:49.593Z,18.00
2022-09-25T07:42:18.227Z,18.60
2022-09-25T07:44:48.744Z,19.00
2022-09-25T07:47:19.837Z,18.10
2022-09-25T07:49:48.499Z,17.07
2022-09-25T07:52:16.907Z,20.53
2022-09-25T07:54:45.323Z,23.10
2022-09-25T07:57:13.848Z,21.53
2022-09-25T07:59:42.370Z,21.07
2022-09-25T08:02:11.517Z,19.93
2022-09-25T08:04:41.439Z,19.67
2022-09-25T08:07:09.964Z,20.60
2022-09-25T08:09:38.558Z,20.33
2022-09-25T08:12:07.548Z,19.43
2022-09-25T08:14:36.924Z,20.10
2022-09-25T08:17:05.508Z,20.63
2022-09-25T08:19:34.238Z,20.87
2022-09-25T08:22:04.233Z,20.93
2022-09-25T08:24:32.545Z,20.97
2022-09-25T08:27:01.175Z,19.93
2022-09-25T08:29:30.170Z,20.37
2022-09-25T08:31:58.703Z,20.43
2022-09-25T08:34:40.476Z,20.83
2022-09-25T08:37:10.856Z,19.80
2022-09-25T08:39:39.222Z,22.53
2022-09-25T08:42:07.791Z,21.53
2022-09-25T08:44:39.281Z,20.57
2022-09-25T08:47:29.941Z,23.00
2022-09-25T08:50:03.600Z,22.07
2022-09-25T08:52:34.821Z,22.73
2022-09-25T08:55:04.180Z,22.83
2022-09-25T08:57:35.777Z,20.67
2022-09-25T09:00:09.176Z,21.20
2022-09-25T09:02:43.518Z,22.00
2022-09-25T09:05:19.772Z,21.83
2022-09-25T09:07:53.860Z,20.53
2022-09-25T09:10:30.201Z,21.57
2022-09-25T09:13:02.049Z,22.20
2022-09-25T09:15:37.098Z,20.20
2022-09-25T09:18:22.988Z,19.53
2022-09-25T09:20:53.960Z,19.97
2022-09-25T09:23:24.903Z,21.07
2022-09-25T09:26:01.920Z,20.10
2022-09-25T09:28:59.040Z,19.50
2022-09-25T09:31:31.519Z,20.37
2022-09-25T09:34:05.969Z,19.20
2022-09-25T09:36:39.478Z,19.83
2022-09-25T09:39:15.920Z,19.37
2022-09-25T09:41:51.089Z,20.57
2022-09-25T09:44:27.320Z,20.97
2022-09-25T09:47:04.459Z,18.57
2022-09-25T09:49:37.668Z,18.33
2022-09-25T09:52:10.794Z,19.40
2022-09-25T09:54:43.697Z,18.57
2022-09-25T09:57:16.050Z,17.27
2022-09-25T09:59:47.550Z,18.20
2022-09-25T10:02:28.734Z,17.93
2022-09-25T10:04:57.390Z,18.73
2022-09-25T10:07:28.520Z,18.10
2022-09-25T10:09:58.536Z,16.33
2022-09-25T10:12:30.381Z,17.83
2022-09-25T10:15:00.881Z,19.00
2022-09-25T10:17:29.923Z,17.40
2022-09-25T10:20:01.546Z,18.80
2022-09-25T10:22:33.908Z,17.80
2022-09-25T10:25:03.797Z,17.83
2022-09-25T10:27:36.055Z,19.90
2022-09-25T10:30:15.190Z,19.67
2022-09-25T10:32:46.219Z,17.87
2022-09-25T10:35:16.719Z,20.37
2022-09-25T10:37:45.264Z,20.47
2022-09-25T10:40:29.539Z,19.67
2022-09-25T10:43:07.029Z,21.20
2022-09-25T10:45:36.750Z,19.60
2022-09-25T10:48:44.884Z,19.67
2022-09-25T10:51:17.542Z,19.33
2022-09-25T10:53:46.933Z,20.87
2022-09-25T10:56:20.730Z,20.33
2022-09-25T10:58:52.858Z,19.23
2022-09-25T11:01:21.464Z,19.97
2022-09-25T11:03:54.219Z,21.20
2022-09-25T11:06:27.739Z,21.07
2022-09-25T11:09:09.321Z,20.60
2022-09-25T11:11:39.532Z,19.23
2022-09-25T11:14:10.137Z,19.97
2022-09-25T11:16:53.560Z,20.17
2022-09-25T11:19:30.221Z,21.53
2022-09-25T11:22:08.267Z,21.03
2022-09-25T11:24:47.259Z,18.90
2022-09-25T11:27:21.864Z,21.17
2022-09-25T11:29:58.758Z,20.67
2022-09-25T11:32:33.521Z,20.83
2022-09-25T11:35:33.290Z,20.77
2022-09-25T11:38:10.139Z,21.27
2022-09-25T11:41:07.533Z,21.60
2022-09-25T11:43:47.618Z,21.43
2022-09-25T11:46:22.363Z,19.90
2022-09-25T11:48:57.204Z,21.93
2022-09-25T11:51:36.141Z,22.23
2022-09-25T11:54:32.662Z,21.27
2022-09-25T11:57:05.824Z,21.10
2022-09-25T12:00:01.318Z,21.57
2022-09-25T12:02:39.841Z,21.73
2022-09-25T12:05:20.329Z,21.90
2022-09-25T12:08:09.001Z,22.83
2022-09-25T12:10:46.259Z,21.23
2022-09-25T12:13:20.919Z,21.53
2022-09-25T12:15:57.940Z,22.13
2022-09-25T12:18:38.319Z,21.43
2022-09-25T12:21:10.661Z,22.37
2022-09-25T12:23:43.607Z,21.03
2022-09-25T12:26:17.995Z,18.07
2022-09-25T12:28:59.149Z,18.40
2022-09-25T12:31:37.088Z,17.53
2022-09-25T12:34:14.960Z,16.93
2022-09-25T12:36:46.629Z,16.87
2022-09-25T12:39:27.637Z,16.43
2022-09-25T12:42:01.171Z,15.90
2022-09-25T12:44:35.776Z,15.97
2022-09-25T12:47:08.438Z,16.93
2022-09-25T12:49:41.150Z,16.87
2022-09-25T12:52:13.848Z,16.10
2022-09-25T12:54:48.180Z,15.43
2022-09-25T12:57:21.569Z,15.63
2022-09-25T12:59:53.070Z,15.90
2022-09-25T13:02:27.915Z,17.33
2022-09-25T13:05:05.226Z,15.57
2022-09-25T13:07:38.042Z,15.43
2022-09-25T13:10:19.602Z,15.50
2022-09-25T13:12:48.800Z,15.00
2022-09-25T13:15:19.258Z,16.17
2022-09-25T13:17:48.986Z,14.73
2022-09-25T13:20:44.339Z,14.17
2022-09-25T13:23:15.250Z,14.60
2022-09-25T13:25:46.642Z,13.33
2022-09-25T13:28:21.149Z,14.10
2022-09-25T13:31:09.184Z,14.23
2022-09-25T13:33:48.800Z,14.57
2022-09-25T13:36:34.034Z,14.53
2022-09-25T13:39:29.508Z,15.03
2022-09-25T13:42:00.220Z,14.60
2022-09-25T13:44:52.639Z,19.80
2022-09-25T13:47:45.479Z,15.47
2022-09-25T13:50:28.533Z,13.87
2022-09-25T13:53:21.620Z,12.80
2022-09-25T13:56:15.522Z,12.73
2022-09-25T13:59:29.226Z,12.10
2022-09-25T14:02:00.909Z,11.60
2022-09-25T14:04:38.177Z,10.63
2022-09-25T14:07:19.854Z,10.30
2022-09-25T14:09:49.809Z,10.13
2022-09-25T14:12:43.368Z,10.93
2022-09-25T14:15:23.219Z,10.97
2022-09-25T14:17:56.499Z,11.37
2022-09-25T14:20:33.594Z,11.47
2022-09-25T14:23:06.427Z,12.07
2022-09-25T14:25:36.559Z,10.50
2022-09-25T14:28:15.248Z,10.33
2022-09-25T14:30:50.714Z,10.00
2022-09-25T14:33:31.710Z,10.70
2022-09-25T14:36:05.706Z,10.23
2022-09-25T14:39:05.751Z,10.80
2022-09-25T14:41:57.730Z,10.30
2022-09-25T14:44:49.321Z,10.80
2022-09-25T14:47:18.678Z,10.00
2022-09-25T14:49:49.580Z,10.77
2022-09-25T14:52:21.978Z,14.13
2022-09-25T14:54:55.367Z,11.03
2022-09-25T14:57:27.690Z,10.80
2022-09-25T14:59:58.023Z,10.10
2022-09-25T15:02:31.998Z,10.37
2022-09-25T15:05:00.659Z,9.73
2022-09-25T15:07:29.221Z,11.10
2022-09-25T15:10:01.241Z,10.63
2022-09-25T15:12:30.981Z,11.33
2022-09-25T15:15:03.627Z,12.23
2022-09-25T15:17:32.009Z,13.17
2022-09-25T15:20:02.173Z,12.97
2022-09-25T15:22:33.669Z,12.60
2022-09-25T15:25:04.963Z,13.37
2022-09-25T15:27:33.450Z,13.27
2022-09-25T15:30:03.184Z,13.50
2022-09-25T15:32:38.480Z,13.00
2022-09-25T15:35:18.379Z,12.63
2022-09-25T15:37:47.178Z,13.70
2022-09-25T15:40:28.506Z,14.50
2022-09-25T15:42:57.560Z,14.70
2022-09-25T15:45:44.898Z,14.87
2022-09-25T15:48:21.547Z,14.77
2022-09-25T15:50:51.240Z,14.87
2022-09-25T15:53:24.073Z,15.27
2022-09-25T15:56:05.130Z,15.43
2022-09-25T15:58:37.379Z,15.37
2022-09-25T16:01:23.126Z,15.23
2022-09-25T16:04:10.002Z,15.70
2022-09-25T16:06:43.109Z,16.03
2022-09-25T16:09:32.558Z,14.83
2022-09-25T16:12:20.900Z,15.27
2022-09-25T16:14:49.429Z,15.90
2022-09-25T16:17:24.509Z,16.10
2022-09-25T16:20:04.270Z,13.97
2022-09-25T16:22:43.011Z,14.03
2022-09-25T16:25:22.185Z,14.80
2022-09-25T16:27:51.959Z,15.10
2022-09-25T16:30:22.432Z,15.23
2022-09-25T16:32:53.086Z,14.33
2022-09-25T16:35:25.275Z,14.17
2022-09-25T16:37:54.186Z,14.83
2022-09-25T16:40:25.967Z,11.90
2022-09-25T16:42:57.131Z,6.13
2022-09-25T16:45:29.610Z,5.87
2022-09-25T16:47:59.182Z,4.07
2022-09-25T16:50:29.326Z,3.13
2022-09-25T16:52:57.599Z,2.90
2022-09-25T16:55:27.553Z,3.77
2022-09-25T16:57:59.128Z,3.60
2022-09-25T17:00:28.658Z,3.10
2022-09-25T17:02:57.218Z,3.00
2022-09-25T17:05:27.771Z,3.07
2022-09-25T17:07:57.149Z,2.53
2022-09-25T17:10:28.719Z,2.70
2022-09-25T17:13:01.275Z,2.73
2022-09-25T17:15:32.925Z,3.67
2022-09-25T17:18:02.229Z,3.77
2022-09-25T17:20:32.232Z,3.00
2022-09-25T17:23:01.589Z,3.80
2022-09-25T17:25:39.219Z,3.70
2022-09-25T17:28:10.687Z,4.43
2022-09-25T17:30:39.954Z,3.80
2022-09-25T17:33:11.165Z,3.43
2022-09-25T17:35:42.818Z,3.73
2022-09-25T17:38:12.967Z,4.63
2022-09-25T17:40:41.938Z,4.13
2022-09-25T17:43:15.340Z,4.17
2022-09-25T17:45:48.954Z,4.33
2022-09-25T17:48:24.418Z,3.97
2022-09-25T17:50:53.699Z,3.87
2022-09-25T17:53:23.869Z,3.80
2022-09-25T17:55:53.833Z,4.17
2022-09-25T17:58:24.800Z,8.57
2022-09-25T18:00:53.578Z,9.90
2022-09-25T18:03:22.572Z,9.20
2022-09-25T18:05:50.941Z,13.00
2022-09-25T18:08:19.680Z,6.30
2022-09-25T18:10:48.078Z,7.40
2022-09-25T18:13:20.310Z,7.40
2022-09-25T18:15:51.966Z,7.63
2022-09-25T18:18:21.138Z,8.10
2022-09-25T18:21:09.397Z,8.30
2022-09-25T18:23:39.234Z,7.63
2022-09-25T18:26:09.050Z,7.10
2022-09-25T18:28:37.436Z,6.73
2022-09-25T18:31:07.506Z,9.07
2022-09-25T18:33:35.895Z,8.53
2022-09-25T18:36:04.216Z,8.50
2022-09-25T18:38:32.655Z,10.83
2022-09-25T18:41:03.456Z,12.67
2022-09-25T18:43:32.107Z,9.30
2022-09-25T18:46:02.850Z,8.23
2022-09-25T18:48:32.650Z,7.90
2022-09-25T18:51:01.103Z,9.50
2022-09-25T18:53:29.806Z,9.43
2022-09-25T18:55:58.769Z,10.17
2022-09-25T18:58:29.752Z,12.23
2022-09-25T19:00:58.146Z,11.63
2022-09-25T19:03:26.501Z,11.67
2022-09-25T19:06:01.543Z,14.63
2022-09-25T19:08:30.079Z,12.63
2022-09-25T19:10:58.902Z,11.93
2022-09-25T19:13:27.946Z,11.37
2022-09-25T19:15:59.057Z,14.13
2022-09-25T19:18:27.596Z,13.40
2022-09-25T19:20:56.029Z,12.17
2022-09-25T19:23:27.240Z,10.37
2022-09-25T19:25:56.360Z,9.80
2022-09-25T19:28:25.125Z,8.47
2022-09-25T19:31:00.211Z,10.00
2022-09-25T19:33:30.845Z,10.83
2022-09-25T19:36:00.837Z,10.30
2022-09-25T19:38:32.882Z,10.10
2022-09-25T19:41:01.547Z,9.57
2022-09-25T19:43:31.131Z,9.17
2022-09-25T19:45:59.494Z,9.10
2022-09-25T19:48:27.878Z,8.77
2022-09-25T19:50:56.183Z,12.00
2022-09-25T19:53:24.497Z,14.23
2022-09-25T19:55:54.939Z,12.20
2022-09-25T19:58:24.263Z,9.33
2022-09-25T20:00:53.652Z,9.23
2022-09-25T20:03:23.765Z,8.20
2022-09-25T20:05:52.250Z,10.13
2022-09-25T20:08:20.852Z,10.77
2022-09-25T20:10:49.144Z,10.37
2022-09-25T20:13:19.513Z,12.37
2022-09-25T20:15:48.274Z,11.23
2022-09-25T20:18:17.537Z,11.77
2022-09-25T20:20:45.876Z,15.77
2022-09-25T20:23:14.250Z,14.87
2022-09-25T20:25:42.632Z,11.70
2022-09-25T20:28:14.253Z,10.23
2022-09-25T20:30:43.937Z,11.27
2022-09-25T20:33:12.303Z,11.03
2022-09-25T20:35:40.606Z,11.13
2022-09-25T20:38:11.157Z,10.57
2022-09-25T20:40:41.175Z,11.60
2022-09-25T20:43:09.603Z,10.47
2022-09-25T20:45:37.792Z,10.47
2022-09-25T20:48:07.622Z,10.40
2022-09-25T20:50:37.292Z,10.33
2022-09-25T20:53:05.699Z,11.53
2022-09-25T20:55:39.042Z,12.07
2022-09-25T20:58:07.401Z,23.43
2022-09-25T21:00:36.377Z,14.43
2022-09-25T21:03:05.375Z,10.60
2022-09-25T21:05:39.421Z,10.50
2022-09-25T21:08:07.963Z,10.00
2022-09-25T21:10:40.482Z,8.37
2022-09-25T21:13:08.875Z,7.90
2022-09-25T21:15:37.560Z,8.17
2022-09-25T21:18:06.111Z,8.70
2022-09-25T21:20:36.312Z,7.27
2022-09-25T21:23:06.110Z,7.90
2022-09-25T21:25:34.663Z,8.03
2022-09-25T21:28:03.289Z,8.43
2022-09-25T21:30:32.409Z,9.13
2022-09-25T21:33:00.831Z,9.23
2022-09-25T21:35:29.094Z,8.60
2022-09-25T21:37:57.345Z,8.47
2022-09-25T21:40:27.213Z,8.63
2022-09-25T21:42:56.923Z,9.40
2022-09-25T21:45:25.254Z,8.70
2022-09-25T21:47:54.129Z,8.73
2022-09-25T21:50:22.481Z,8.97
2022-09-25T21:52:51.612Z,8.20
2022-09-25T21:55:19.896Z,9.00
2022-09-25T21:57:54.917Z,8.83
2022-09-25T22:00:23.190Z,9.10
2022-09-25T22:02:51.591Z,8.37
2022-09-25T22:05:20.508Z,8.70
2022-09-25T22:07:49.741Z,9.77
2022-09-25T22:10:18.012Z,9.53
2022-09-25T22:12:47.106Z,9.83
2022-09-25T22:15:18.025Z,9.60
2022-09-25T22:17:46.298Z,9.17
2022-09-25T22:20:14.831Z,9.87
2022-09-25T22:22:43.132Z,9.57
2022-09-25T22:25:11.520Z,10.50
2022-09-25T22:27:39.791Z,9.67
2022-09-25T22:30:09.193Z,9.93
2022-09-25T22:32:38.953Z,10.00
2022-09-25T22:35:07.551Z,9.90
2022-09-25T22:37:36.643Z,11.20
2022-09-25T22:40:05.193Z,9.93
2022-09-25T22:42:33.580Z,9.57
2022-09-25T22:45:02.890Z,9.90
2022-09-25T22:47:31.233Z,9.73
2022-09-25T22:50:00.971Z,10.47
2022-09-25T22:52:29.280Z,9.83
2022-09-25T22:54:57.637Z,9.70
2022-09-25T22:57:25.992Z,9.20
2022-09-25T22:59:54.235Z,9.87
2022-09-25T23:02:22.761Z,9.97
2022-09-25T23:04:52.354Z,10.03
2022-09-25T23:07:22.143Z,10.43
2022-09-25T23:09:50.387Z,9.53
2022-09-25T23:12:18.729Z,9.87
2022-09-25T23:14:47.013Z,10.47
2022-09-25T23:17:15.315Z,8.83
2022-09-25T23:19:43.677Z,10.60
2022-09-25T23:22:11.941Z,10.23
2022-09-25T23:24:41.661Z,10.37
2022-09-25T23:27:10.034Z,10.10
2022-09-25T23:29:38.359Z,9.63
2022-09-25T23:32:08.528Z,10.00
2022-09-25T23:34:36.900Z,9.20
2022-09-25T23:37:05.238Z,9.20
2022-09-25T23:39:33.591Z,9.17
2022-09-25T23:42:03.326Z,8.97
2022-09-25T23:44:31.680Z,9.37
2022-09-25T23:47:00.237Z,9.43
2022-09-25T23:49:28.628Z,9.77
2022-09-25T23:51:56.927Z,9.47
2022-09-25T23:54:25.986Z,9.33
2022-09-25T23:56:54.251Z,9.00
2022-09-25T23:59:24.174Z,8.30
